sensor_id;sensor_type;location;lat;lon;timestamp;temperature;humidity
37242;DHT22;23135;51.078;12.108;2023-02-21T00:02:12;9.20;99.90
37242;DHT22;23135;51.078;12.108;2023-02-21T00:04:56;9.20;99.90
37242;DHT22;23135;51.078;12.108;2023-02-21T00:07:41;9.20;99.90
37242;DHT22;23135;51.078;12.108;2023-02-21T00:10:25;9.10;99.90
37242;DHT22;23135;51.078;12.108;2023-02-21T00:13:09;9.10;99.90
37242;DHT22;23135;51.078;12.108;2023-02-21T00:15:53;9.10;99.90
37242;DHT22;23135;51.078;12.108;2023-02-21T00:18:38;9.10;99.90
37242;DHT22;23135;51.078;12.108;2023-02-21T00:21:23;9.10;99.90
37242;DHT22;23135;51.078;12.108;2023-02-21T00:24:17;9.10;99.90
37242;DHT22;23135;51.078;12.108;2023-02-21T00:27:02;9.10;99.90
37242;DHT22;23135;51.078;12.108;2023-02-21T00:29:48;9.20;99.90
37242;DHT22;23135;51.078;12.108;2023-02-21T00:32:33;9.10;99.90
37242;DHT22;23135;51.078;12.108;2023-02-21T00:35:17;9.20;99.90
37242;DHT22;23135;51.078;12.108;2023-02-21T00:38:01;9.20;99.90
37242;DHT22;23135;51.078;12.108;2023-02-21T00:40:45;9.20;99.90
37242;DHT22;23135;51.078;12.108;2023-02-21T00:43:31;9.30;99.90
37242;DHT22;23135;51.078;12.108;2023-02-21T00:46:16;9.30;99.90
37242;DHT22;23135;51.078;12.108;2023-02-21T00:49:01;9.30;99.90
37242;DHT22;23135;51.078;12.108;2023-02-21T00:51:45;9.30;99.90
37242;DHT22;23135;51.078;12.108;2023-02-21T00:54:30;9.40;99.90
37242;DHT22;23135;51.078;12.108;2023-02-21T00:57:14;9.40;99.90
37242;DHT22;23135;51.078;12.108;2023-02-21T00:59:58;9.40;99.90
37242;DHT22;23135;51.078;12.108;2023-02-21T01:02:42;9.40;99.90
37242;DHT22;23135;51.078;12.108;2023-02-21T01:05:26;9.40;99.90
37242;DHT22;23135;51.078;12.108;2023-02-21T01:08:11;9.40;99.90
37242;DHT22;23135;51.078;12.108;2023-02-21T01:10:55;9.40;99.90
37242;DHT22;23135;51.078;12.108;2023-02-21T01:13:39;9.50;99.90
37242;DHT22;23135;51.078;12.108;2023-02-21T01:16:23;9.50;99.90
37242;DHT22;23135;51.078;12.108;2023-02-21T01:19:07;9.50;99.90
37242;DHT22;23135;51.078;12.108;2023-02-21T01:21:51;9.50;99.90
37242;DHT22;23135;51.078;12.108;2023-02-21T01:24:35;9.50;99.90
37242;DHT22;23135;51.078;12.108;2023-02-21T01:27:19;9.50;99.90
37242;DHT22;23135;51.078;12.108;2023-02-21T01:30:03;9.50;99.90
37242;DHT22;23135;51.078;12.108;2023-02-21T01:32:48;9.50;99.90
37242;DHT22;23135;51.078;12.108;2023-02-21T01:35:32;9.50;99.90
37242;DHT22;23135;51.078;12.108;2023-02-21T01:38:16;9.50;99.90
37242;DHT22;23135;51.078;12.108;2023-02-21T01:41:00;9.50;99.90
37242;DHT22;23135;51.078;12.108;2023-02-21T01:44:04;9.50;99.90
37242;DHT22;23135;51.078;12.108;2023-02-21T01:46:48;9.50;99.90
37242;DHT22;23135;51.078;12.108;2023-02-21T01:49:35;9.50;99.90
37242;DHT22;23135;51.078;12.108;2023-02-21T01:52:21;9.50;99.90
37242;DHT22;23135;51.078;12.108;2023-02-21T01:55:06;9.50;99.90
37242;DHT22;23135;51.078;12.108;2023-02-21T01:57:51;9.50;99.90
37242;DHT22;23135;51.078;12.108;2023-02-21T02:00:37;9.50;99.90
37242;DHT22;23135;51.078;12.108;2023-02-21T02:03:21;9.50;99.90
37242;DHT22;23135;51.078;12.108;2023-02-21T02:06:08;9.50;99.90
37242;DHT22;23135;51.078;12.108;2023-02-21T02:08:53;9.50;99.90
37242;DHT22;23135;51.078;12.108;2023-02-21T02:26:03;9.50;99.90
37242;DHT22;23135;51.078;12.108;2023-02-21T02:36:32;9.50;99.90
37242;DHT22;23135;51.078;12.108;2023-02-21T02:39:07;9.50;99.90
37242;DHT22;23135;51.078;12.108;2023-02-21T02:41:48;9.50;99.90
37242;DHT22;23135;51.078;12.108;2023-02-21T02:44:31;9.50;99.90
37242;DHT22;23135;51.078;12.108;2023-02-21T02:47:03;9.40;99.90
37242;DHT22;23135;51.078;12.108;2023-02-21T02:49:32;9.40;99.90
37242;DHT22;23135;51.078;12.108;2023-02-21T02:52:07;9.40;99.90
37242;DHT22;23135;51.078;12.108;2023-02-21T02:54:33;9.40;99.90
37242;DHT22;23135;51.078;12.108;2023-02-21T02:56:59;9.40;99.90
37242;DHT22;23135;51.078;12.108;2023-02-21T02:59:28;9.40;99.90
37242;DHT22;23135;51.078;12.108;2023-02-21T03:08:32;9.40;99.90
37242;DHT22;23135;51.078;12.108;2023-02-21T03:13:33;9.40;99.90
37242;DHT22;23135;51.078;12.108;2023-02-21T03:16:41;9.40;99.90
37242;DHT22;23135;51.078;12.108;2023-02-21T03:19:14;9.40;99.90
37242;DHT22;23135;51.078;12.108;2023-02-21T03:21:49;9.40;99.90
37242;DHT22;23135;51.078;12.108;2023-02-21T03:24:18;9.30;99.90
37242;DHT22;23135;51.078;12.108;2023-02-21T03:26:47;9.30;99.90
37242;DHT22;23135;51.078;12.108;2023-02-21T03:29:15;9.30;99.90
37242;DHT22;23135;51.078;12.108;2023-02-21T03:31:49;9.30;99.90
37242;DHT22;23135;51.078;12.108;2023-02-21T03:34:16;9.30;99.90
37242;DHT22;23135;51.078;12.108;2023-02-21T03:36:42;9.30;99.90
37242;DHT22;23135;51.078;12.108;2023-02-21T03:39:08;9.30;99.90
37242;DHT22;23135;51.078;12.108;2023-02-21T03:41:33;9.40;99.90
37242;DHT22;23135;51.078;12.108;2023-02-21T03:43:59;9.40;99.90
37242;DHT22;23135;51.078;12.108;2023-02-21T03:46:24;9.40;99.90
37242;DHT22;23135;51.078;12.108;2023-02-21T03:48:50;9.40;99.90
37242;DHT22;23135;51.078;12.108;2023-02-21T03:51:15;9.40;99.90
37242;DHT22;23135;51.078;12.108;2023-02-21T03:53:41;9.50;99.90
37242;DHT22;23135;51.078;12.108;2023-02-21T03:56:07;9.40;99.90
37242;DHT22;23135;51.078;12.108;2023-02-21T03:58:32;9.40;99.90
37242;DHT22;23135;51.078;12.108;2023-02-21T04:00:58;9.40;99.90
37242;DHT22;23135;51.078;12.108;2023-02-21T04:03:23;9.50;99.90
37242;DHT22;23135;51.078;12.108;2023-02-21T04:05:49;9.40;99.90
37242;DHT22;23135;51.078;12.108;2023-02-21T04:08:15;9.50;99.90
37242;DHT22;23135;51.078;12.108;2023-02-21T04:10:40;9.50;99.90
37242;DHT22;23135;51.078;12.108;2023-02-21T04:13:06;9.40;99.90
37242;DHT22;23135;51.078;12.108;2023-02-21T04:15:32;9.40;99.90
37242;DHT22;23135;51.078;12.108;2023-02-21T04:17:57;9.50;99.90
37242;DHT22;23135;51.078;12.108;2023-02-21T04:20:23;9.50;99.90
37242;DHT22;23135;51.078;12.108;2023-02-21T04:22:48;9.50;99.90
37242;DHT22;23135;51.078;12.108;2023-02-21T04:25:14;9.40;99.90
37242;DHT22;23135;51.078;12.108;2023-02-21T04:27:40;9.40;99.90
37242;DHT22;23135;51.078;12.108;2023-02-21T04:30:06;9.40;99.90
37242;DHT22;23135;51.078;12.108;2023-02-21T04:32:32;9.50;99.90
37242;DHT22;23135;51.078;12.108;2023-02-21T04:34:57;9.50;99.90
37242;DHT22;23135;51.078;12.108;2023-02-21T04:37:23;9.40;99.90
37242;DHT22;23135;51.078;12.108;2023-02-21T04:39:48;9.50;99.90
37242;DHT22;23135;51.078;12.108;2023-02-21T04:42:14;9.50;99.90
37242;DHT22;23135;51.078;12.108;2023-02-21T04:44:40;9.50;99.90
37242;DHT22;23135;51.078;12.108;2023-02-21T04:47:05;9.50;99.90
37242;DHT22;23135;51.078;12.108;2023-02-21T04:49:31;9.40;99.90
37242;DHT22;23135;51.078;12.108;2023-02-21T04:51:56;9.40;99.90
37242;DHT22;23135;51.078;12.108;2023-02-21T04:54:23;9.40;99.90
37242;DHT22;23135;51.078;12.108;2023-02-21T04:56:48;9.40;99.90
37242;DHT22;23135;51.078;12.108;2023-02-21T04:59:14;9.40;99.90
37242;DHT22;23135;51.078;12.108;2023-02-21T05:01:39;9.30;99.90
37242;DHT22;23135;51.078;12.108;2023-02-21T05:04:05;9.30;99.90
37242;DHT22;23135;51.078;12.108;2023-02-21T05:06:32;9.30;99.90
37242;DHT22;23135;51.078;12.108;2023-02-21T05:08:58;9.30;99.90
37242;DHT22;23135;51.078;12.108;2023-02-21T05:11:24;9.30;99.90
37242;DHT22;23135;51.078;12.108;2023-02-21T05:13:50;9.40;99.90
37242;DHT22;23135;51.078;12.108;2023-02-21T05:16:17;9.30;99.90
37242;DHT22;23135;51.078;12.108;2023-02-21T05:18:44;9.30;99.90
37242;DHT22;23135;51.078;12.108;2023-02-21T05:21:10;9.30;99.90
37242;DHT22;23135;51.078;12.108;2023-02-21T05:23:35;9.30;99.90
37242;DHT22;23135;51.078;12.108;2023-02-21T05:26:08;9.30;99.90
37242;DHT22;23135;51.078;12.108;2023-02-21T05:28:35;9.30;99.90
37242;DHT22;23135;51.078;12.108;2023-02-21T05:31:00;9.30;99.90
37242;DHT22;23135;51.078;12.108;2023-02-21T05:33:26;9.20;99.90
37242;DHT22;23135;51.078;12.108;2023-02-21T05:35:52;9.20;99.90
37242;DHT22;23135;51.078;12.108;2023-02-21T05:38:20;9.30;99.90
37242;DHT22;23135;51.078;12.108;2023-02-21T05:40:47;9.30;99.90
37242;DHT22;23135;51.078;12.108;2023-02-21T05:43:12;9.30;99.90
37242;DHT22;23135;51.078;12.108;2023-02-21T05:45:38;9.30;99.90
37242;DHT22;23135;51.078;12.108;2023-02-21T05:48:04;9.30;99.90
37242;DHT22;23135;51.078;12.108;2023-02-21T05:50:29;9.30;99.90
37242;DHT22;23135;51.078;12.108;2023-02-21T05:52:56;9.30;99.90
37242;DHT22;23135;51.078;12.108;2023-02-21T05:55:22;9.30;99.90
37242;DHT22;23135;51.078;12.108;2023-02-21T05:57:48;9.40;99.90
37242;DHT22;23135;51.078;12.108;2023-02-21T06:00:18;9.40;99.90
37242;DHT22;23135;51.078;12.108;2023-02-21T06:02:45;9.40;99.90
37242;DHT22;23135;51.078;12.108;2023-02-21T06:05:11;9.40;99.90
37242;DHT22;23135;51.078;12.108;2023-02-21T06:07:37;9.40;99.90
37242;DHT22;23135;51.078;12.108;2023-02-21T06:10:03;9.30;99.90
37242;DHT22;23135;51.078;12.108;2023-02-21T06:12:29;9.30;99.90
37242;DHT22;23135;51.078;12.108;2023-02-21T06:14:55;9.30;99.90
37242;DHT22;23135;51.078;12.108;2023-02-21T06:17:21;9.30;99.90
37242;DHT22;23135;51.078;12.108;2023-02-21T06:19:47;9.20;99.90
37242;DHT22;23135;51.078;12.108;2023-02-21T06:22:13;9.20;99.90
37242;DHT22;23135;51.078;12.108;2023-02-21T06:24:38;9.10;99.90
37242;DHT22;23135;51.078;12.108;2023-02-21T06:27:04;9.20;99.90
37242;DHT22;23135;51.078;12.108;2023-02-21T06:29:30;9.10;99.90
37242;DHT22;23135;51.078;12.108;2023-02-21T06:31:59;9.10;99.90
37242;DHT22;23135;51.078;12.108;2023-02-21T06:34:25;9.10;99.90
37242;DHT22;23135;51.078;12.108;2023-02-21T06:36:53;9.20;99.90
37242;DHT22;23135;51.078;12.108;2023-02-21T06:39:18;9.20;99.90
37242;DHT22;23135;51.078;12.108;2023-02-21T06:41:44;9.20;99.90
37242;DHT22;23135;51.078;12.108;2023-02-21T06:44:10;9.30;99.90
37242;DHT22;23135;51.078;12.108;2023-02-21T06:46:36;9.30;99.90
37242;DHT22;23135;51.078;12.108;2023-02-21T06:49:03;9.30;99.90
37242;DHT22;23135;51.078;12.108;2023-02-21T06:51:36;9.30;99.90
37242;DHT22;23135;51.078;12.108;2023-02-21T06:54:02;9.30;99.90
37242;DHT22;23135;51.078;12.108;2023-02-21T06:56:28;9.30;99.90
37242;DHT22;23135;51.078;12.108;2023-02-21T06:58:54;9.30;99.90
37242;DHT22;23135;51.078;12.108;2023-02-21T07:01:19;9.30;99.90
37242;DHT22;23135;51.078;12.108;2023-02-21T07:03:45;9.40;99.90
37242;DHT22;23135;51.078;12.108;2023-02-21T07:06:12;9.40;99.90
37242;DHT22;23135;51.078;12.108;2023-02-21T07:08:37;9.40;99.90
37242;DHT22;23135;51.078;12.108;2023-02-21T07:11:04;9.40;99.90
37242;DHT22;23135;51.078;12.108;2023-02-21T07:13:30;9.40;99.90
37242;DHT22;23135;51.078;12.108;2023-02-21T07:15:56;9.40;99.90
37242;DHT22;23135;51.078;12.108;2023-02-21T07:18:21;9.50;99.90
37242;DHT22;23135;51.078;12.108;2023-02-21T07:20:47;9.50;99.90
37242;DHT22;23135;51.078;12.108;2023-02-21T07:23:14;9.50;99.90
37242;DHT22;23135;51.078;12.108;2023-02-21T07:25:39;9.50;99.90
37242;DHT22;23135;51.078;12.108;2023-02-21T07:28:05;9.50;99.90
37242;DHT22;23135;51.078;12.108;2023-02-21T07:30:30;9.50;99.90
37242;DHT22;23135;51.078;12.108;2023-02-21T07:32:57;9.50;99.90
37242;DHT22;23135;51.078;12.108;2023-02-21T07:35:22;9.50;99.90
37242;DHT22;23135;51.078;12.108;2023-02-21T07:37:48;9.50;99.90
37242;DHT22;23135;51.078;12.108;2023-02-21T07:40:13;9.50;99.90
37242;DHT22;23135;51.078;12.108;2023-02-21T07:42:42;9.50;99.90
37242;DHT22;23135;51.078;12.108;2023-02-21T07:45:12;9.60;99.90
37242;DHT22;23135;51.078;12.108;2023-02-21T07:47:38;9.60;99.90
37242;DHT22;23135;51.078;12.108;2023-02-21T07:50:04;9.60;99.90
37242;DHT22;23135;51.078;12.108;2023-02-21T07:52:29;9.60;99.90
37242;DHT22;23135;51.078;12.108;2023-02-21T07:54:55;9.70;99.90
37242;DHT22;23135;51.078;12.108;2023-02-21T07:57:21;9.70;99.90
37242;DHT22;23135;51.078;12.108;2023-02-21T07:59:47;9.70;99.90
37242;DHT22;23135;51.078;12.108;2023-02-21T08:02:13;9.70;99.90
37242;DHT22;23135;51.078;12.108;2023-02-21T08:04:40;9.70;99.90
37242;DHT22;23135;51.078;12.108;2023-02-21T08:07:06;9.70;99.90
37242;DHT22;23135;51.078;12.108;2023-02-21T08:09:32;9.60;99.90
37242;DHT22;23135;51.078;12.108;2023-02-21T08:11:58;9.70;99.90
37242;DHT22;23135;51.078;12.108;2023-02-21T08:14:24;9.70;99.90
37242;DHT22;23135;51.078;12.108;2023-02-21T08:16:50;9.70;99.90
37242;DHT22;23135;51.078;12.108;2023-02-21T08:19:15;9.80;99.90
37242;DHT22;23135;51.078;12.108;2023-02-21T08:21:46;9.80;99.90
37242;DHT22;23135;51.078;12.108;2023-02-21T08:24:12;9.90;99.90
37242;DHT22;23135;51.078;12.108;2023-02-21T08:26:38;9.90;99.90
37242;DHT22;23135;51.078;12.108;2023-02-21T08:29:05;10.00;99.90
37242;DHT22;23135;51.078;12.108;2023-02-21T08:31:34;10.10;99.90
37242;DHT22;23135;51.078;12.108;2023-02-21T08:34:00;10.10;99.90
37242;DHT22;23135;51.078;12.108;2023-02-21T08:36:34;10.10;99.90
37242;DHT22;23135;51.078;12.108;2023-02-21T08:38:59;10.20;99.90
37242;DHT22;23135;51.078;12.108;2023-02-21T08:41:25;10.20;99.90
37242;DHT22;23135;51.078;12.108;2023-02-21T08:43:58;10.20;99.90
37242;DHT22;23135;51.078;12.108;2023-02-21T08:46:24;10.20;99.90
37242;DHT22;23135;51.078;12.108;2023-02-21T08:48:49;10.50;99.90
37242;DHT22;23135;51.078;12.108;2023-02-21T08:51:15;10.60;99.90
37242;DHT22;23135;51.078;12.108;2023-02-21T08:53:40;10.50;99.90
37242;DHT22;23135;51.078;12.108;2023-02-21T08:56:07;10.50;99.90
37242;DHT22;23135;51.078;12.108;2023-02-21T08:58:32;10.70;99.90
37242;DHT22;23135;51.078;12.108;2023-02-21T09:00:58;10.80;99.90
37242;DHT22;23135;51.078;12.108;2023-02-21T09:03:23;10.80;99.90
37242;DHT22;23135;51.078;12.108;2023-02-21T09:05:49;10.80;99.90
37242;DHT22;23135;51.078;12.108;2023-02-21T09:08:14;10.80;99.90
37242;DHT22;23135;51.078;12.108;2023-02-21T09:10:40;10.90;99.90
37242;DHT22;23135;51.078;12.108;2023-02-21T09:13:11;10.80;99.90
37242;DHT22;23135;51.078;12.108;2023-02-21T09:15:37;10.80;99.90
37242;DHT22;23135;51.078;12.108;2023-02-21T09:18:03;10.70;99.90
37242;DHT22;23135;51.078;12.108;2023-02-21T09:20:28;10.80;99.90
37242;DHT22;23135;51.078;12.108;2023-02-21T09:22:54;10.80;99.90
37242;DHT22;23135;51.078;12.108;2023-02-21T09:25:22;10.80;99.90
37242;DHT22;23135;51.078;12.108;2023-02-21T09:27:49;10.90;99.90
37242;DHT22;23135;51.078;12.108;2023-02-21T09:30:18;10.90;99.90
37242;DHT22;23135;51.078;12.108;2023-02-21T09:32:44;10.90;99.90
37242;DHT22;23135;51.078;12.108;2023-02-21T09:35:12;10.90;99.90
37242;DHT22;23135;51.078;12.108;2023-02-21T09:37:39;10.90;99.90
37242;DHT22;23135;51.078;12.108;2023-02-21T09:42:52;11.00;99.90
37242;DHT22;23135;51.078;12.108;2023-02-21T09:45:18;11.10;99.90
37242;DHT22;23135;51.078;12.108;2023-02-21T09:47:49;11.10;99.90
37242;DHT22;23135;51.078;12.108;2023-02-21T09:50:18;11.20;99.90
37242;DHT22;23135;51.078;12.108;2023-02-21T09:52:46;11.30;99.90
37242;DHT22;23135;51.078;12.108;2023-02-21T09:55:13;11.30;99.90
37242;DHT22;23135;51.078;12.108;2023-02-21T09:57:45;11.40;99.90
37242;DHT22;23135;51.078;12.108;2023-02-21T10:00:21;11.80;99.90
37242;DHT22;23135;51.078;12.108;2023-02-21T10:06:00;12.30;99.90
37242;DHT22;23135;51.078;12.108;2023-02-21T10:08:40;12.40;99.90
37242;DHT22;23135;51.078;12.108;2023-02-21T10:16:41;11.90;99.90
37242;DHT22;23135;51.078;12.108;2023-02-21T10:19:17;11.90;99.90
37242;DHT22;23135;51.078;12.108;2023-02-21T10:21:48;11.90;99.90
37242;DHT22;23135;51.078;12.108;2023-02-21T10:24:15;12.00;99.90
37242;DHT22;23135;51.078;12.108;2023-02-21T10:26:47;12.30;99.90
37242;DHT22;23135;51.078;12.108;2023-02-21T10:29:20;12.50;99.90
37242;DHT22;23135;51.078;12.108;2023-02-21T10:31:47;12.20;99.90
37242;DHT22;23135;51.078;12.108;2023-02-21T10:34:24;12.00;99.90
37242;DHT22;23135;51.078;12.108;2023-02-21T10:36:51;12.00;99.90
37242;DHT22;23135;51.078;12.108;2023-02-21T10:39:30;12.00;99.90
37242;DHT22;23135;51.078;12.108;2023-02-21T10:41:59;12.30;99.90
37242;DHT22;23135;51.078;12.108;2023-02-21T10:44:28;12.20;99.90
37242;DHT22;23135;51.078;12.108;2023-02-21T10:47:25;12.40;99.90
37242;DHT22;23135;51.078;12.108;2023-02-21T10:50:04;12.40;99.90
37242;DHT22;23135;51.078;12.108;2023-02-21T10:52:36;12.40;99.90
37242;DHT22;23135;51.078;12.108;2023-02-21T10:55:25;12.60;99.90
37242;DHT22;23135;51.078;12.108;2023-02-21T10:57:54;12.60;99.90
37242;DHT22;23135;51.078;12.108;2023-02-21T11:00:27;12.80;99.90
37242;DHT22;23135;51.078;12.108;2023-02-21T11:02:56;12.70;99.90
37242;DHT22;23135;51.078;12.108;2023-02-21T11:05:27;12.50;99.90
37242;DHT22;23135;51.078;12.108;2023-02-21T11:10:29;12.20;99.90
37242;DHT22;23135;51.078;12.108;2023-02-21T11:13:14;12.20;99.90
37242;DHT22;23135;51.078;12.108;2023-02-21T11:15:40;12.50;99.90
37242;DHT22;23135;51.078;12.108;2023-02-21T11:20:43;12.60;99.90
37242;DHT22;23135;51.078;12.108;2023-02-21T11:23:27;12.70;99.90
37242;DHT22;23135;51.078;12.108;2023-02-21T11:26:14;12.90;99.90
37242;DHT22;23135;51.078;12.108;2023-02-21T11:28:42;13.20;99.90
37242;DHT22;23135;51.078;12.108;2023-02-21T11:31:12;13.30;99.90
37242;DHT22;23135;51.078;12.108;2023-02-21T11:33:51;13.10;99.90
37242;DHT22;23135;51.078;12.108;2023-02-21T11:36:27;13.20;99.90
37242;DHT22;23135;51.078;12.108;2023-02-21T11:39:16;13.00;99.90
37242;DHT22;23135;51.078;12.108;2023-02-21T11:41:48;12.90;99.90
37242;DHT22;23135;51.078;12.108;2023-02-21T11:44:32;12.90;99.90
37242;DHT22;23135;51.078;12.108;2023-02-21T11:47:22;12.90;99.90
37242;DHT22;23135;51.078;12.108;2023-02-21T11:52:32;13.00;99.90
37242;DHT22;23135;51.078;12.108;2023-02-21T11:54:58;13.00;99.90
37242;DHT22;23135;51.078;12.108;2023-02-21T11:57:37;13.00;99.90
37242;DHT22;23135;51.078;12.108;2023-02-21T12:00:29;12.90;99.90
37242;DHT22;23135;51.078;12.108;2023-02-21T12:19:17;12.50;99.90
37242;DHT22;23135;51.078;12.108;2023-02-21T12:30:03;12.20;99.90
37242;DHT22;23135;51.078;12.108;2023-02-21T12:32:50;12.20;99.90
37242;DHT22;23135;51.078;12.108;2023-02-21T12:35:53;12.20;99.90
37242;DHT22;23135;51.078;12.108;2023-02-21T12:39:31;12.30;99.90
37242;DHT22;23135;51.078;12.108;2023-02-21T12:47:22;13.10;99.90
37242;DHT22;23135;51.078;12.108;2023-02-21T12:50:02;12.80;99.90
37242;DHT22;23135;51.078;12.108;2023-02-21T12:55:19;13.00;99.90
37242;DHT22;23135;51.078;12.108;2023-02-21T13:06:18;13.20;99.90
37242;DHT22;23135;51.078;12.108;2023-02-21T13:09:09;13.20;99.90
37242;DHT22;23135;51.078;12.108;2023-02-21T13:14:30;13.30;99.90
37242;DHT22;23135;51.078;12.108;2023-02-21T13:16:57;13.40;99.90
37242;DHT22;23135;51.078;12.108;2023-02-21T13:19:24;13.70;99.90
37242;DHT22;23135;51.078;12.108;2023-02-21T13:22:05;13.60;99.90
37242;DHT22;23135;51.078;12.108;2023-02-21T13:27:50;13.60;99.90
37242;DHT22;23135;51.078;12.108;2023-02-21T13:32:58;13.50;99.90
37242;DHT22;23135;51.078;12.108;2023-02-21T13:35:33;13.30;99.90
37242;DHT22;23135;51.078;12.108;2023-02-21T13:38:00;13.20;99.90
37242;DHT22;23135;51.078;12.108;2023-02-21T13:40:41;13.40;99.90
37242;DHT22;23135;51.078;12.108;2023-02-21T13:43:15;13.60;99.90
37242;DHT22;23135;51.078;12.108;2023-02-21T13:45:44;13.90;99.90
37242;DHT22;23135;51.078;12.108;2023-02-21T13:48:25;13.70;99.90
37242;DHT22;23135;51.078;12.108;2023-02-21T13:50:56;13.50;99.90
37242;DHT22;23135;51.078;12.108;2023-02-21T13:53:29;13.20;99.90
37242;DHT22;23135;51.078;12.108;2023-02-21T13:58:37;13.40;99.90
37242;DHT22;23135;51.078;12.108;2023-02-21T14:01:21;13.60;99.90
37242;DHT22;23135;51.078;12.108;2023-02-21T14:03:48;13.60;99.90
37242;DHT22;23135;51.078;12.108;2023-02-21T14:06:27;13.80;99.90
37242;DHT22;23135;51.078;12.108;2023-02-21T14:08:58;13.70;99.90
37242;DHT22;23135;51.078;12.108;2023-02-21T14:11:28;13.70;99.90
37242;DHT22;23135;51.078;12.108;2023-02-21T14:14:22;13.70;99.90
37242;DHT22;23135;51.078;12.108;2023-02-21T14:16:48;13.60;99.90
37242;DHT22;23135;51.078;12.108;2023-02-21T14:19:43;13.60;99.90
37242;DHT22;23135;51.078;12.108;2023-02-21T14:24:42;13.90;99.90
37242;DHT22;23135;51.078;12.108;2023-02-21T14:37:22;13.20;99.90
37242;DHT22;23135;51.078;12.108;2023-02-21T14:39:55;12.70;99.90
37242;DHT22;23135;51.078;12.108;2023-02-21T14:48:05;12.10;99.90
37242;DHT22;23135;51.078;12.108;2023-02-21T14:50:35;11.90;99.90
37242;DHT22;23135;51.078;12.108;2023-02-21T15:04:22;11.50;99.90
37242;DHT22;23135;51.078;12.108;2023-02-21T15:07:27;11.50;99.90
37242;DHT22;23135;51.078;12.108;2023-02-21T15:10:13;11.50;99.90
37242;DHT22;23135;51.078;12.108;2023-02-21T15:15:23;12.20;99.90
37242;DHT22;23135;51.078;12.108;2023-02-21T15:20:26;12.50;99.90
37242;DHT22;23135;51.078;12.108;2023-02-21T15:25:36;12.50;99.90
37242;DHT22;23135;51.078;12.108;2023-02-21T15:28:05;12.60;99.90
37242;DHT22;23135;51.078;12.108;2023-02-21T15:30:39;12.50;99.90
37242;DHT22;23135;51.078;12.108;2023-02-21T15:33:18;12.30;99.90
37242;DHT22;23135;51.078;12.108;2023-02-21T15:36:19;12.00;99.90
37242;DHT22;23135;51.078;12.108;2023-02-21T15:38:49;12.00;99.90
37242;DHT22;23135;51.078;12.108;2023-02-21T15:43:56;11.80;99.90
37242;DHT22;23135;51.078;12.108;2023-02-21T15:46:35;11.80;99.90
37242;DHT22;23135;51.078;12.108;2023-02-21T15:49:04;11.70;99.90
37242;DHT22;23135;51.078;12.108;2023-02-21T15:51:30;11.70;99.90
37242;DHT22;23135;51.078;12.108;2023-02-21T15:56:41;11.20;99.90
37242;DHT22;23135;51.078;12.108;2023-02-21T15:59:17;11.00;99.90
37242;DHT22;23135;51.078;12.108;2023-02-21T16:01:43;10.90;99.90
37242;DHT22;23135;51.078;12.108;2023-02-21T16:04:18;10.80;99.90
37242;DHT22;23135;51.078;12.108;2023-02-21T16:06:47;10.70;99.90
37242;DHT22;23135;51.078;12.108;2023-02-21T16:11:49;10.40;99.90
37242;DHT22;23135;51.078;12.108;2023-02-21T16:17:04;10.30;99.90
37242;DHT22;23135;51.078;12.108;2023-02-21T16:19:31;10.20;99.90
37242;DHT22;23135;51.078;12.108;2023-02-21T16:22:30;10.10;99.90
37242;DHT22;23135;51.078;12.108;2023-02-21T16:27:41;9.90;99.90
37242;DHT22;23135;51.078;12.108;2023-02-21T16:30:13;9.90;99.90
37242;DHT22;23135;51.078;12.108;2023-02-21T16:32:41;9.80;99.90
37242;DHT22;23135;51.078;12.108;2023-02-21T16:35:16;9.70;99.90
37242;DHT22;23135;51.078;12.108;2023-02-21T16:37:45;9.60;99.90
37242;DHT22;23135;51.078;12.108;2023-02-21T16:40:16;9.70;99.90
37242;DHT22;23135;51.078;12.108;2023-02-21T16:42:46;9.60;99.90
37242;DHT22;23135;51.078;12.108;2023-02-21T16:45:12;9.60;99.90
37242;DHT22;23135;51.078;12.108;2023-02-21T16:47:37;9.60;99.90
37242;DHT22;23135;51.078;12.108;2023-02-21T16:50:03;9.50;99.90
37242;DHT22;23135;51.078;12.108;2023-02-21T16:52:29;9.50;99.90
37242;DHT22;23135;51.078;12.108;2023-02-21T16:54:54;9.50;99.90
37242;DHT22;23135;51.078;12.108;2023-02-21T16:57:20;9.40;99.90
37242;DHT22;23135;51.078;12.108;2023-02-21T16:59:45;9.40;99.90
37242;DHT22;23135;51.078;12.108;2023-02-21T17:02:14;9.30;99.90
37242;DHT22;23135;51.078;12.108;2023-02-21T17:04:40;9.30;99.90
37242;DHT22;23135;51.078;12.108;2023-02-21T17:07:05;9.20;99.90
37242;DHT22;23135;51.078;12.108;2023-02-21T17:09:34;9.20;99.90
37242;DHT22;23135;51.078;12.108;2023-02-21T17:12:05;9.20;99.90
37242;DHT22;23135;51.078;12.108;2023-02-21T17:14:31;9.20;99.90
37242;DHT22;23135;51.078;12.108;2023-02-21T17:16:57;9.20;99.90
37242;DHT22;23135;51.078;12.108;2023-02-21T17:19:23;9.10;99.90
37242;DHT22;23135;51.078;12.108;2023-02-21T17:21:50;9.10;99.90
37242;DHT22;23135;51.078;12.108;2023-02-21T17:24:16;9.20;99.90
37242;DHT22;23135;51.078;12.108;2023-02-21T17:26:42;9.20;99.90
37242;DHT22;23135;51.078;12.108;2023-02-21T17:29:08;9.20;99.90
37242;DHT22;23135;51.078;12.108;2023-02-21T17:31:34;9.20;99.90
37242;DHT22;23135;51.078;12.108;2023-02-21T17:34:00;9.30;99.90
37242;DHT22;23135;51.078;12.108;2023-02-21T17:36:27;9.20;99.90
37242;DHT22;23135;51.078;12.108;2023-02-21T17:38:53;9.30;99.90
37242;DHT22;23135;51.078;12.108;2023-02-21T17:41:19;9.30;99.90
37242;DHT22;23135;51.078;12.108;2023-02-21T17:43:45;9.40;99.90
37242;DHT22;23135;51.078;12.108;2023-02-21T17:46:13;9.40;99.90
37242;DHT22;23135;51.078;12.108;2023-02-21T17:48:40;9.40;99.90
37242;DHT22;23135;51.078;12.108;2023-02-21T17:51:06;9.40;99.90
37242;DHT22;23135;51.078;12.108;2023-02-21T17:53:32;9.40;99.90
37242;DHT22;23135;51.078;12.108;2023-02-21T17:55:58;9.50;99.90
37242;DHT22;23135;51.078;12.108;2023-02-21T17:58:28;9.50;99.90
37242;DHT22;23135;51.078;12.108;2023-02-21T18:00:56;9.50;99.90
37242;DHT22;23135;51.078;12.108;2023-02-21T18:03:22;9.50;99.90
37242;DHT22;23135;51.078;12.108;2023-02-21T18:05:48;9.60;99.90
37242;DHT22;23135;51.078;12.108;2023-02-21T18:08:15;9.50;99.90
37242;DHT22;23135;51.078;12.108;2023-02-21T18:10:41;9.60;99.90
37242;DHT22;23135;51.078;12.108;2023-02-21T18:13:28;9.50;99.90
37242;DHT22;23135;51.078;12.108;2023-02-21T18:15:54;9.60;99.90
37242;DHT22;23135;51.078;12.108;2023-02-21T18:18:19;9.60;99.90
37242;DHT22;23135;51.078;12.108;2023-02-21T18:20:45;9.60;99.90
37242;DHT22;23135;51.078;12.108;2023-02-21T18:23:11;9.60;99.90
37242;DHT22;23135;51.078;12.108;2023-02-21T18:25:37;9.60;99.90
37242;DHT22;23135;51.078;12.108;2023-02-21T18:28:03;9.60;99.90